sensor_id;sensor_type;location;lat;lon;timestamp;pressure;altitude;pressure_sealevel;temperature;humidity
29163;BME280;20331;53.144;8.208;2022-08-01T00:01:49;101176.63;;;19.29;100.00
29163;BME280;20331;53.144;8.208;2022-08-01T00:12:11;101191.97;;;19.16;100.00
29163;BME280;20331;53.144;8.208;2022-08-01T00:22:33;101187.59;;;19.34;100.00
29163;BME280;20331;53.144;8.208;2022-08-01T00:32:55;101188.91;;;19.21;100.00
29163;BME280;20331;53.144;8.208;2022-08-01T00:43:17;101194.47;;;19.18;100.00
29163;BME280;20331;53.144;8.208;2022-08-01T00:53:39;101199.66;;;19.00;100.00
29163;BME280;20331;53.144;8.208;2022-08-01T01:04:11;101206.31;;;19.04;100.00
29163;BME280;20331;53.144;8.208;2022-08-01T01:14:41;101206.44;;;19.22;100.00
29163;BME280;20331;53.144;8.208;2022-08-01T01:35:57;101219.53;;;19.04;100.00
29163;BME280;20331;53.144;8.208;2022-08-01T01:46:24;101229.59;;;18.91;100.00
29163;BME280;20331;53.144;8.208;2022-08-01T01:56:49;101235.94;;;18.98;100.00
29163;BME280;20331;53.144;8.208;2022-08-01T02:07:13;101235.41;;;18.95;100.00
29163;BME280;20331;53.144;8.208;2022-08-01T02:17:41;101225.28;;;18.81;100.00
29163;BME280;20331;53.144;8.208;2022-08-01T02:38:28;101243.94;;;18.60;100.00
29163;BME280;20331;53.144;8.208;2022-08-01T02:48:53;101242.69;;;18.55;100.00
29163;BME280;20331;53.144;8.208;2022-08-01T02:59:18;101261.28;;;18.44;100.00
29163;BME280;20331;53.144;8.208;2022-08-01T03:09:46;101271.44;;;18.30;100.00
29163;BME280;20331;53.144;8.208;2022-08-01T03:20:11;101292.81;;;18.27;100.00
29163;BME280;20331;53.144;8.208;2022-08-01T03:30:37;101299.91;;;18.36;100.00
29163;BME280;20331;53.144;8.208;2022-08-01T03:41:07;101300.75;;;18.27;100.00
29163;BME280;20331;53.144;8.208;2022-08-01T03:51:30;101302.41;;;18.28;100.00
29163;BME280;20331;53.144;8.208;2022-08-01T04:01:53;101314.84;;;18.16;100.00
29163;BME280;20331;53.144;8.208;2022-08-01T04:12:16;101329.69;;;18.08;100.00
29163;BME280;20331;53.144;8.208;2022-08-01T04:22:39;101338.66;;;17.96;100.00
29163;BME280;20331;53.144;8.208;2022-08-01T04:33:04;101342.38;;;17.84;100.00
29163;BME280;20331;53.144;8.208;2022-08-01T04:43:27;101350.28;;;17.84;100.00
29163;BME280;20331;53.144;8.208;2022-08-01T04:53:48;101358.59;;;17.79;100.00
29163;BME280;20331;53.144;8.208;2022-08-01T05:04:14;101387.47;;;17.81;100.00
29163;BME280;20331;53.144;8.208;2022-08-01T05:14:37;101393.28;;;17.75;100.00
29163;BME280;20331;53.144;8.208;2022-08-01T05:24:58;101419.84;;;17.42;100.00
29163;BME280;20331;53.144;8.208;2022-08-01T05:35:21;101434.28;;;17.27;100.00
29163;BME280;20331;53.144;8.208;2022-08-01T05:45:42;101444.47;;;17.32;100.00
29163;BME280;20331;53.144;8.208;2022-08-01T05:56:05;101446.97;;;17.22;100.00
29163;BME280;20331;53.144;8.208;2022-08-01T06:06:27;101456.53;;;17.34;100.00
29163;BME280;20331;53.144;8.208;2022-08-01T06:16:48;101459.19;;;17.34;100.00
29163;BME280;20331;53.144;8.208;2022-08-01T06:27:10;101455.59;;;17.24;100.00
29163;BME280;20331;53.144;8.208;2022-08-01T06:37:43;101460.81;;;17.46;100.00
29163;BME280;20331;53.144;8.208;2022-08-01T06:48:06;101468.31;;;17.19;100.00
29163;BME280;20331;53.144;8.208;2022-08-01T06:58:27;101468.78;;;17.76;100.00
29163;BME280;20331;53.144;8.208;2022-08-01T07:08:52;101472.78;;;17.91;100.00
29163;BME280;20331;53.144;8.208;2022-08-01T07:19:14;101488.41;;;18.03;100.00
29163;BME280;20331;53.144;8.208;2022-08-01T07:29:36;101491.56;;;18.18;95.30
29163;BME280;20331;53.144;8.208;2022-08-01T07:39:57;101497.50;;;18.10;96.48
29163;BME280;20331;53.144;8.208;2022-08-01T07:50:19;101518.97;;;18.46;100.00
29163;BME280;20331;53.144;8.208;2022-08-01T08:00:41;101527.94;;;18.35;95.58
29163;BME280;20331;53.144;8.208;2022-08-01T08:11:02;101533.50;;;18.32;93.82
29163;BME280;20331;53.144;8.208;2022-08-01T08:21:24;101552.75;;;18.52;93.71
29163;BME280;20331;53.144;8.208;2022-08-01T08:31:45;101561.66;;;18.51;90.02
29163;BME280;20331;53.144;8.208;2022-08-01T08:42:13;101566.13;;;19.20;80.26
29163;BME280;20331;53.144;8.208;2022-08-01T08:52:35;101563.84;;;19.06;80.63
29163;BME280;20331;53.144;8.208;2022-08-01T09:02:59;101586.34;;;19.40;86.02
29163;BME280;20331;53.144;8.208;2022-08-01T09:13:20;101578.25;;;19.32;78.60
29163;BME280;20331;53.144;8.208;2022-08-01T09:23:48;101594.78;;;20.02;78.47
29163;BME280;20331;53.144;8.208;2022-08-01T09:34:16;101609.25;;;19.79;77.38
29163;BME280;20331;53.144;8.208;2022-08-01T09:44:45;101622.91;;;20.03;77.68
29163;BME280;20331;53.144;8.208;2022-08-01T09:55:21;101632.91;;;19.80;73.06
29163;BME280;20331;53.144;8.208;2022-08-01T10:05:42;101632.94;;;20.18;74.91
29163;BME280;20331;53.144;8.208;2022-08-01T10:16:12;101630.44;;;19.98;79.03
29163;BME280;20331;53.144;8.208;2022-08-01T10:26:37;101626.28;;;20.14;77.25
29163;BME280;20331;53.144;8.208;2022-08-01T10:37:00;101628.19;;;20.31;71.30
29163;BME280;20331;53.144;8.208;2022-08-01T10:47:33;101642.94;;;20.52;70.22
29163;BME280;20331;53.144;8.208;2022-08-01T10:58:10;101634.22;;;20.88;71.62
29163;BME280;20331;53.144;8.208;2022-08-01T11:08:37;101641.13;;;21.08;71.56
29163;BME280;20331;53.144;8.208;2022-08-01T11:19:03;101647.13;;;20.55;70.62
29163;BME280;20331;53.144;8.208;2022-08-01T11:29:25;101645.63;;;21.25;67.29
29163;BME280;20331;53.144;8.208;2022-08-01T11:40:26;101650.31;;;21.14;62.78
29163;BME280;20331;53.144;8.208;2022-08-01T11:50:50;101659.25;;;21.13;63.21
29163;BME280;20331;53.144;8.208;2022-08-01T12:01:13;101651.72;;;22.06;60.49
29163;BME280;20331;53.144;8.208;2022-08-01T12:11:36;101656.44;;;21.41;64.18
29163;BME280;20331;53.144;8.208;2022-08-01T12:22:06;101656.38;;;21.33;65.15
29163;BME280;20331;53.144;8.208;2022-08-01T12:32:33;101660.72;;;20.98;66.18
29163;BME280;20331;53.144;8.208;2022-08-01T12:42:59;101667.19;;;20.86;65.45
29163;BME280;20331;53.144;8.208;2022-08-01T12:53:21;101651.69;;;21.18;64.39
29163;BME280;20331;53.144;8.208;2022-08-01T13:04:00;101648.13;;;21.09;63.52
29163;BME280;20331;53.144;8.208;2022-08-01T13:14:29;101663.53;;;21.50;63.39
29163;BME280;20331;53.144;8.208;2022-08-01T13:24:50;101665.72;;;21.01;63.98
29163;BME280;20331;53.144;8.208;2022-08-01T13:35:12;101662.25;;;21.27;61.68
29163;BME280;20331;53.144;8.208;2022-08-01T13:45:34;101671.34;;;20.88;62.12
29163;BME280;20331;53.144;8.208;2022-08-01T13:55:57;101670.91;;;21.29;64.25
29163;BME280;20331;53.144;8.208;2022-08-01T14:06:19;101660.69;;;21.07;64.38
29163;BME280;20331;53.144;8.208;2022-08-01T14:16:43;101669.50;;;21.25;66.64
29163;BME280;20331;53.144;8.208;2022-08-01T14:27:08;101665.97;;;21.07;63.95
29163;BME280;20331;53.144;8.208;2022-08-01T14:37:29;101653.16;;;21.56;59.39
29163;BME280;20331;53.144;8.208;2022-08-01T14:47:58;101657.75;;;21.37;59.23
29163;BME280;20331;53.144;8.208;2022-08-01T14:58:20;101654.59;;;21.24;60.62
29163;BME280;20331;53.144;8.208;2022-08-01T15:08:42;101666.56;;;21.55;58.79
29163;BME280;20331;53.144;8.208;2022-08-01T15:19:04;101664.81;;;21.19;59.19
29163;BME280;20331;53.144;8.208;2022-08-01T15:29:26;101667.31;;;21.21;60.04
29163;BME280;20331;53.144;8.208;2022-08-01T15:39:47;101671.19;;;21.26;58.73
29163;BME280;20331;53.144;8.208;2022-08-01T15:50:09;101687.81;;;20.82;60.94
29163;BME280;20331;53.144;8.208;2022-08-01T16:00:31;101683.06;;;20.95;62.63
29163;BME280;20331;53.144;8.208;2022-08-01T16:10:59;101683.97;;;21.40;58.38
29163;BME280;20331;53.144;8.208;2022-08-01T16:21:21;101679.00;;;21.64;55.61
29163;BME280;20331;53.144;8.208;2022-08-01T16:31:45;101682.72;;;21.71;57.75
29163;BME280;20331;53.144;8.208;2022-08-01T16:42:26;101685.19;;;21.82;55.20
29163;BME280;20331;53.144;8.208;2022-08-01T16:52:48;101688.66;;;20.92;61.15
29163;BME280;20331;53.144;8.208;2022-08-01T17:03:11;101693.78;;;20.94;60.24
29163;BME280;20331;53.144;8.208;2022-08-01T17:13:52;101708.72;;;20.76;63.90
29163;BME280;20331;53.144;8.208;2022-08-01T17:24:14;101715.16;;;20.92;61.37
29163;BME280;20331;53.144;8.208;2022-08-01T17:34:37;101723.00;;;20.56;61.65
29163;BME280;20331;53.144;8.208;2022-08-01T17:45:01;101729.13;;;20.19;62.82
29163;BME280;20331;53.144;8.208;2022-08-01T17:55:24;101733.91;;;19.95;62.35
29163;BME280;20331;53.144;8.208;2022-08-01T18:06:09;101733.19;;;19.74;62.94
29163;BME280;20331;53.144;8.208;2022-08-01T18:16:30;101723.34;;;19.46;64.27
29163;BME280;20331;53.144;8.208;2022-08-01T18:26:52;101729.25;;;19.09;65.52
29163;BME280;20331;53.144;8.208;2022-08-01T18:37:15;101729.84;;;18.92;66.77
29163;BME280;20331;53.144;8.208;2022-08-01T18:47:40;101735.78;;;18.84;67.28
29163;BME280;20331;53.144;8.208;2022-08-01T18:58:02;101737.06;;;18.69;69.18
29163;BME280;20331;53.144;8.208;2022-08-01T19:08:23;101758.66;;;18.54;69.79
29163;BME280;20331;53.144;8.208;2022-08-01T19:18:45;101749.28;;;18.30;69.69
29163;BME280;20331;53.144;8.208;2022-08-01T19:29:15;101771.03;;;18.11;71.84
29163;BME280;20331;53.144;8.208;2022-08-01T19:39:37;101778.22;;;17.98;72.41
29163;BME280;20331;53.144;8.208;2022-08-01T19:50:04;101779.56;;;17.82;75.29
29163;BME280;20331;53.144;8.208;2022-08-01T20:00:26;101780.03;;;17.76;75.56
29163;BME280;20331;53.144;8.208;2022-08-01T20:10:49;101789.16;;;17.50;74.13
29163;BME280;20331;53.144;8.208;2022-08-01T20:21:12;101784.84;;;17.38;76.63
29163;BME280;20331;53.144;8.208;2022-08-01T20:31:34;101786.94;;;17.11;76.42
29163;BME280;20331;53.144;8.208;2022-08-01T20:42:05;101780.34;;;16.95;76.76
29163;BME280;20331;53.144;8.208;2022-08-01T20:52:26;101787.59;;;16.91;78.13
29163;BME280;20331;53.144;8.208;2022-08-01T21:02:53;101776.09;;;16.81;78.18
29163;BME280;20331;53.144;8.208;2022-08-01T21:13:37;101765.06;;;16.76;77.86
29163;BME280;20331;53.144;8.208;2022-08-01T21:24:05;101769.56;;;16.63;78.54
29163;BME280;20331;53.144;8.208;2022-08-01T21:34:30;101762.38;;;16.19;79.13
29163;BME280;20331;53.144;8.208;2022-08-01T21:44:53;101771.09;;;16.32;79.44
29163;BME280;20331;53.144;8.208;2022-08-01T21:55:23;101772.13;;;16.06;81.40
29163;BME280;20331;53.144;8.208;2022-08-01T22:05:57;101780.06;;;15.93;82.88
29163;BME280;20331;53.144;8.208;2022-08-01T22:16:22;101774.66;;;15.59;84.43
29163;BME280;20331;53.144;8.208;2022-08-01T22:26:47;101769.91;;;15.51;87.10
29163;BME280;20331;53.144;8.208;2022-08-01T22:37:09;101777.63;;;15.42;87.63
29163;BME280;20331;53.144;8.208;2022-08-01T22:57:57;101809.28;;;15.28;89.81
29163;BME280;20331;53.144;8.208;2022-08-01T23:08:19;101790.72;;;15.17;91.62
29163;BME280;20331;53.144;8.208;2022-08-01T23:18:43;101769.72;;;15.05;92.61
29163;BME280;20331;53.144;8.208;2022-08-01T23:29:06;101767.72;;;14.83;94.22
29163;BME280;20331;53.144;8.208;2022-08-01T23:39:29;101757.91;;;14.85;94.50
29163;BME280;20331;53.144;8.208;2022-08-01T23:49:50;101752.66;;;14.73;94.14
